Terminal Aerodrome Forecast
Issued by NWS Wilmington, NC

Home | Current Version | Previous Version | Text Only | Print | Product List | Glossary On
Versions: 1 2 3 4 5 6 7 8 9 10 11 12 13 14 15
000
FTUS42 KILM 260500
TAFILM
TAF
KILM 260533Z 2606/2706 23005KT P6SM FEW030 SCT070 SCT100
     FM261000 23005KT P6SM SCT035 BKN100
     FM261200 27009KT P6SM SCT030 BKN050 BKN100
     FM261800 28011G20KT P6SM VCSH BKN030
     FM270200 30010G18KT P6SM SCT025 BKN050=

USA.gov is the U.S. government's official web portal to all federal, state and local government web resources and services.